sensor_id;sensor_type;location;lat;lon;timestamp;P1;durP1;ratioP1;P2;durP2;ratioP2
16153;SDS011;8182;55.648;13.208;2023-05-29T00:00:22;6.67;;;2.40;;
16153;SDS011;8182;55.648;13.208;2023-05-29T00:02:49;7.97;;;2.20;;
16153;SDS011;8182;55.648;13.208;2023-05-29T00:05:16;8.30;;;2.30;;
16153;SDS011;8182;55.648;13.208;2023-05-29T00:07:45;12.70;;;3.13;;
16153;SDS011;8182;55.648;13.208;2023-05-29T00:10:13;10.47;;;2.60;;
16153;SDS011;8182;55.648;13.208;2023-05-29T00:12:41;11.50;;;2.50;;
16153;SDS011;8182;55.648;13.208;2023-05-29T00:15:10;9.17;;;2.47;;
16153;SDS011;8182;55.648;13.208;2023-05-29T00:17:37;10.53;;;2.67;;
16153;SDS011;8182;55.648;13.208;2023-05-29T00:20:05;11.93;;;2.50;;
16153;SDS011;8182;55.648;13.208;2023-05-29T00:22:34;10.33;;;2.40;;
16153;SDS011;8182;55.648;13.208;2023-05-29T00:25:03;15.27;;;2.57;;
16153;SDS011;8182;55.648;13.208;2023-05-29T00:27:30;8.83;;;2.53;;
16153;SDS011;8182;55.648;13.208;2023-05-29T00:29:58;9.17;;;2.90;;
16153;SDS011;8182;55.648;13.208;2023-05-29T00:32:26;10.73;;;2.90;;
16153;SDS011;8182;55.648;13.208;2023-05-29T00:34:53;10.73;;;2.50;;
16153;SDS011;8182;55.648;13.208;2023-05-29T00:37:21;9.83;;;2.77;;
16153;SDS011;8182;55.648;13.208;2023-05-29T00:39:48;9.77;;;2.60;;
16153;SDS011;8182;55.648;13.208;2023-05-29T00:42:15;11.10;;;2.67;;
16153;SDS011;8182;55.648;13.208;2023-05-29T00:44:42;11.33;;;3.00;;
16153;SDS011;8182;55.648;13.208;2023-05-29T00:47:11;13.53;;;3.17;;
16153;SDS011;8182;55.648;13.208;2023-05-29T00:49:40;12.17;;;2.70;;
16153;SDS011;8182;55.648;13.208;2023-05-29T00:52:08;16.77;;;3.00;;
16153;SDS011;8182;55.648;13.208;2023-05-29T00:54:42;14.03;;;3.07;;
16153;SDS011;8182;55.648;13.208;2023-05-29T00:57:12;11.23;;;2.70;;
16153;SDS011;8182;55.648;13.208;2023-05-29T00:59:46;11.77;;;3.17;;
16153;SDS011;8182;55.648;13.208;2023-05-29T01:02:14;11.20;;;3.20;;
16153;SDS011;8182;55.648;13.208;2023-05-29T01:04:45;13.63;;;3.13;;
16153;SDS011;8182;55.648;13.208;2023-05-29T01:07:12;9.87;;;2.90;;
16153;SDS011;8182;55.648;13.208;2023-05-29T01:09:41;13.60;;;3.40;;
16153;SDS011;8182;55.648;13.208;2023-05-29T01:12:14;12.03;;;3.23;;
16153;SDS011;8182;55.648;13.208;2023-05-29T01:14:52;13.70;;;3.53;;
16153;SDS011;8182;55.648;13.208;2023-05-29T01:17:32;10.43;;;2.87;;
16153;SDS011;8182;55.648;13.208;2023-05-29T01:20:21;11.60;;;3.60;;
16153;SDS011;8182;55.648;13.208;2023-05-29T01:23:06;14.00;;;3.40;;
16153;SDS011;8182;55.648;13.208;2023-05-29T01:25:46;16.33;;;3.63;;
16153;SDS011;8182;55.648;13.208;2023-05-29T01:28:27;15.43;;;2.67;;
16153;SDS011;8182;55.648;13.208;2023-05-29T01:30:59;12.60;;;3.07;;
16153;SDS011;8182;55.648;13.208;2023-05-29T01:33:29;15.33;;;3.30;;
16153;SDS011;8182;55.648;13.208;2023-05-29T01:35:56;12.53;;;3.00;;
16153;SDS011;8182;55.648;13.208;2023-05-29T01:38:23;12.83;;;3.13;;
16153;SDS011;8182;55.648;13.208;2023-05-29T01:40:50;11.83;;;2.80;;
16153;SDS011;8182;55.648;13.208;2023-05-29T01:43:17;11.57;;;3.33;;
16153;SDS011;8182;55.648;13.208;2023-05-29T01:45:46;10.53;;;2.90;;
16153;SDS011;8182;55.648;13.208;2023-05-29T01:48:13;11.03;;;2.80;;
16153;SDS011;8182;55.648;13.208;2023-05-29T01:50:41;11.10;;;3.00;;
16153;SDS011;8182;55.648;13.208;2023-05-29T01:53:09;13.30;;;3.10;;
16153;SDS011;8182;55.648;13.208;2023-05-29T01:55:36;12.67;;;3.60;;
16153;SDS011;8182;55.648;13.208;2023-05-29T01:58:03;10.93;;;3.33;;
16153;SDS011;8182;55.648;13.208;2023-05-29T02:00:31;10.33;;;3.20;;
16153;SDS011;8182;55.648;13.208;2023-05-29T02:03:02;11.20;;;3.20;;
16153;SDS011;8182;55.648;13.208;2023-05-29T02:05:30;11.77;;;3.50;;
16153;SDS011;8182;55.648;13.208;2023-05-29T02:07:57;10.20;;;3.07;;
16153;SDS011;8182;55.648;13.208;2023-05-29T02:10:24;9.77;;;2.80;;
16153;SDS011;8182;55.648;13.208;2023-05-29T02:12:51;15.23;;;3.17;;
16153;SDS011;8182;55.648;13.208;2023-05-29T02:15:20;14.90;;;3.20;;
16153;SDS011;8182;55.648;13.208;2023-05-29T02:17:47;15.17;;;3.47;;
16153;SDS011;8182;55.648;13.208;2023-05-29T02:20:16;11.63;;;3.27;;
16153;SDS011;8182;55.648;13.208;2023-05-29T02:22:43;11.43;;;3.30;;
16153;SDS011;8182;55.648;13.208;2023-05-29T02:25:11;10.77;;;3.40;;
16153;SDS011;8182;55.648;13.208;2023-05-29T02:27:40;14.43;;;4.07;;
16153;SDS011;8182;55.648;13.208;2023-05-29T02:30:07;12.53;;;3.50;;
16153;SDS011;8182;55.648;13.208;2023-05-29T02:32:35;16.03;;;3.00;;
16153;SDS011;8182;55.648;13.208;2023-05-29T02:35:02;13.80;;;3.53;;
16153;SDS011;8182;55.648;13.208;2023-05-29T02:37:33;17.25;;;4.50;;
16153;SDS011;8182;55.648;13.208;2023-05-29T02:40:00;13.70;;;3.67;;
16153;SDS011;8182;55.648;13.208;2023-05-29T02:42:27;15.37;;;3.40;;
16153;SDS011;8182;55.648;13.208;2023-05-29T02:44:54;15.90;;;3.23;;
16153;SDS011;8182;55.648;13.208;2023-05-29T02:47:26;14.13;;;3.33;;
16153;SDS011;8182;55.648;13.208;2023-05-29T02:49:54;13.33;;;3.23;;
16153;SDS011;8182;55.648;13.208;2023-05-29T02:52:21;10.50;;;3.30;;
16153;SDS011;8182;55.648;13.208;2023-05-29T02:54:52;18.97;;;3.07;;
16153;SDS011;8182;55.648;13.208;2023-05-29T02:57:21;10.73;;;3.10;;
16153;SDS011;8182;55.648;13.208;2023-05-29T02:59:48;16.20;;;4.00;;
16153;SDS011;8182;55.648;13.208;2023-05-29T03:02:16;13.63;;;3.77;;
16153;SDS011;8182;55.648;13.208;2023-05-29T03:04:44;13.57;;;3.67;;
16153;SDS011;8182;55.648;13.208;2023-05-29T03:07:11;11.63;;;3.57;;
16153;SDS011;8182;55.648;13.208;2023-05-29T03:09:38;15.30;;;3.30;;
16153;SDS011;8182;55.648;13.208;2023-05-29T03:12:07;15.23;;;3.63;;
16153;SDS011;8182;55.648;13.208;2023-05-29T03:14:35;15.47;;;3.40;;
16153;SDS011;8182;55.648;13.208;2023-05-29T03:17:03;17.23;;;3.60;;
16153;SDS011;8182;55.648;13.208;2023-05-29T03:19:32;20.03;;;3.80;;
16153;SDS011;8182;55.648;13.208;2023-05-29T03:21:59;16.00;;;3.83;;
16153;SDS011;8182;55.648;13.208;2023-05-29T03:24:26;11.23;;;3.40;;
16153;SDS011;8182;55.648;13.208;2023-05-29T03:26:53;11.60;;;3.00;;
16153;SDS011;8182;55.648;13.208;2023-05-29T03:29:22;12.47;;;3.40;;
16153;SDS011;8182;55.648;13.208;2023-05-29T03:31:49;10.83;;;3.03;;
16153;SDS011;8182;55.648;13.208;2023-05-29T03:34:17;15.13;;;2.80;;
16153;SDS011;8182;55.648;13.208;2023-05-29T03:36:44;17.50;;;3.77;;
16153;SDS011;8182;55.648;13.208;2023-05-29T03:39:11;12.20;;;3.03;;
16153;SDS011;8182;55.648;13.208;2023-05-29T03:41:38;11.10;;;3.97;;
16153;SDS011;8182;55.648;13.208;2023-05-29T03:44:05;12.40;;;3.27;;
16153;SDS011;8182;55.648;13.208;2023-05-29T03:46:34;12.07;;;3.30;;
16153;SDS011;8182;55.648;13.208;2023-05-29T03:49:01;15.73;;;3.93;;
16153;SDS011;8182;55.648;13.208;2023-05-29T03:51:28;13.07;;;3.23;;
16153;SDS011;8182;55.648;13.208;2023-05-29T03:53:55;13.63;;;3.43;;
16153;SDS011;8182;55.648;13.208;2023-05-29T03:56:24;15.13;;;3.47;;
16153;SDS011;8182;55.648;13.208;2023-05-29T03:58:51;16.10;;;3.63;;
16153;SDS011;8182;55.648;13.208;2023-05-29T04:01:18;12.50;;;3.63;;
16153;SDS011;8182;55.648;13.208;2023-05-29T04:03:47;14.93;;;3.23;;
16153;SDS011;8182;55.648;13.208;2023-05-29T04:06:16;13.60;;;3.73;;
16153;SDS011;8182;55.648;13.208;2023-05-29T04:08:43;11.80;;;3.67;;
16153;SDS011;8182;55.648;13.208;2023-05-29T04:11:11;15.13;;;3.70;;
16153;SDS011;8182;55.648;13.208;2023-05-29T04:13:39;17.27;;;4.10;;
16153;SDS011;8182;55.648;13.208;2023-05-29T04:16:10;20.43;;;3.50;;
16153;SDS011;8182;55.648;13.208;2023-05-29T04:18:37;16.47;;;3.87;;
16153;SDS011;8182;55.648;13.208;2023-05-29T04:21:06;13.50;;;3.33;;
16153;SDS011;8182;55.648;13.208;2023-05-29T04:23:51;16.90;;;3.90;;
16153;SDS011;8182;55.648;13.208;2023-05-29T04:26:19;16.83;;;3.47;;
16153;SDS011;8182;55.648;13.208;2023-05-29T04:28:50;13.73;;;3.93;;
16153;SDS011;8182;55.648;13.208;2023-05-29T04:31:22;13.93;;;3.10;;
16153;SDS011;8182;55.648;13.208;2023-05-29T04:33:50;21.17;;;3.70;;
16153;SDS011;8182;55.648;13.208;2023-05-29T04:36:21;18.10;;;3.30;;
16153;SDS011;8182;55.648;13.208;2023-05-29T04:38:51;20.47;;;4.00;;
16153;SDS011;8182;55.648;13.208;2023-05-29T04:41:19;14.57;;;3.53;;
16153;SDS011;8182;55.648;13.208;2023-05-29T04:43:48;14.20;;;3.30;;
16153;SDS011;8182;55.648;13.208;2023-05-29T04:46:17;18.27;;;3.53;;
16153;SDS011;8182;55.648;13.208;2023-05-29T04:48:44;19.83;;;4.27;;
16153;SDS011;8182;55.648;13.208;2023-05-29T04:51:11;11.93;;;3.50;;
16153;SDS011;8182;55.648;13.208;2023-05-29T04:53:40;12.30;;;3.87;;
16153;SDS011;8182;55.648;13.208;2023-05-29T04:56:07;20.27;;;3.73;;
16153;SDS011;8182;55.648;13.208;2023-05-29T04:58:34;14.77;;;4.03;;
16153;SDS011;8182;55.648;13.208;2023-05-29T05:01:01;18.77;;;3.57;;
16153;SDS011;8182;55.648;13.208;2023-05-29T05:03:29;17.23;;;3.60;;
16153;SDS011;8182;55.648;13.208;2023-05-29T05:05:58;22.13;;;3.70;;
16153;SDS011;8182;55.648;13.208;2023-05-29T05:08:27;16.00;;;3.80;;
16153;SDS011;8182;55.648;13.208;2023-05-29T05:10:56;18.87;;;4.13;;
16153;SDS011;8182;55.648;13.208;2023-05-29T05:13:27;18.10;;;3.47;;
16153;SDS011;8182;55.648;13.208;2023-05-29T05:15:57;17.00;;;3.47;;
16153;SDS011;8182;55.648;13.208;2023-05-29T05:18:24;16.27;;;3.20;;
16153;SDS011;8182;55.648;13.208;2023-05-29T05:20:51;22.10;;;4.67;;
16153;SDS011;8182;55.648;13.208;2023-05-29T05:23:18;16.47;;;3.40;;
16153;SDS011;8182;55.648;13.208;2023-05-29T05:25:52;12.90;;;3.50;;
16153;SDS011;8182;55.648;13.208;2023-05-29T05:28:20;16.67;;;3.63;;
16153;SDS011;8182;55.648;13.208;2023-05-29T05:30:47;16.47;;;3.93;;
16153;SDS011;8182;55.648;13.208;2023-05-29T05:33:14;13.30;;;3.23;;
16153;SDS011;8182;55.648;13.208;2023-05-29T05:35:42;14.87;;;3.67;;
16153;SDS011;8182;55.648;13.208;2023-05-29T05:41:33;15.47;;;3.57;;
16153;SDS011;8182;55.648;13.208;2023-05-29T05:44:01;14.37;;;3.40;;
16153;SDS011;8182;55.648;13.208;2023-05-29T05:46:28;16.03;;;3.97;;
16153;SDS011;8182;55.648;13.208;2023-05-29T05:48:55;15.03;;;3.40;;
16153;SDS011;8182;55.648;13.208;2023-05-29T05:51:23;15.17;;;3.80;;
16153;SDS011;8182;55.648;13.208;2023-05-29T05:53:50;15.97;;;3.90;;
16153;SDS011;8182;55.648;13.208;2023-05-29T05:56:18;17.53;;;4.23;;
16153;SDS011;8182;55.648;13.208;2023-05-29T05:58:45;19.07;;;3.80;;
16153;SDS011;8182;55.648;13.208;2023-05-29T06:01:13;15.97;;;3.83;;
16153;SDS011;8182;55.648;13.208;2023-05-29T06:03:43;19.50;;;4.17;;
16153;SDS011;8182;55.648;13.208;2023-05-29T06:06:10;14.63;;;3.97;;
16153;SDS011;8182;55.648;13.208;2023-05-29T06:08:37;14.80;;;3.20;;
16153;SDS011;8182;55.648;13.208;2023-05-29T06:11:06;15.23;;;3.97;;
16153;SDS011;8182;55.648;13.208;2023-05-29T06:13:33;17.53;;;3.47;;
16153;SDS011;8182;55.648;13.208;2023-05-29T06:16:00;16.97;;;3.50;;
16153;SDS011;8182;55.648;13.208;2023-05-29T06:18:29;15.20;;;3.50;;
16153;SDS011;8182;55.648;13.208;2023-05-29T06:20:56;18.13;;;3.57;;
16153;SDS011;8182;55.648;13.208;2023-05-29T06:23:24;15.27;;;3.67;;
16153;SDS011;8182;55.648;13.208;2023-05-29T06:25:51;12.97;;;3.00;;
16153;SDS011;8182;55.648;13.208;2023-05-29T06:28:18;11.70;;;3.33;;
16153;SDS011;8182;55.648;13.208;2023-05-29T06:30:49;13.47;;;3.30;;
16153;SDS011;8182;55.648;13.208;2023-05-29T06:33:16;11.30;;;3.27;;
16153;SDS011;8182;55.648;13.208;2023-05-29T06:35:45;14.10;;;3.13;;
16153;SDS011;8182;55.648;13.208;2023-05-29T06:38:13;13.17;;;3.03;;
16153;SDS011;8182;55.648;13.208;2023-05-29T06:40:43;14.57;;;3.33;;
16153;SDS011;8182;55.648;13.208;2023-05-29T06:43:10;19.77;;;3.80;;
16153;SDS011;8182;55.648;13.208;2023-05-29T06:45:37;15.43;;;3.40;;
16153;SDS011;8182;55.648;13.208;2023-05-29T06:48:04;14.53;;;3.60;;
16153;SDS011;8182;55.648;13.208;2023-05-29T06:50:35;17.47;;;3.30;;
16153;SDS011;8182;55.648;13.208;2023-05-29T06:53:03;11.60;;;3.40;;
16153;SDS011;8182;55.648;13.208;2023-05-29T06:55:30;19.07;;;3.30;;
16153;SDS011;8182;55.648;13.208;2023-05-29T06:57:57;13.00;;;3.00;;
16153;SDS011;8182;55.648;13.208;2023-05-29T07:00:24;13.37;;;3.03;;
16153;SDS011;8182;55.648;13.208;2023-05-29T07:02:51;9.73;;;3.20;;
16153;SDS011;8182;55.648;13.208;2023-05-29T07:05:21;13.47;;;3.27;;
16153;SDS011;8182;55.648;13.208;2023-05-29T07:07:48;13.43;;;3.13;;
16153;SDS011;8182;55.648;13.208;2023-05-29T07:10:16;17.73;;;3.00;;
16153;SDS011;8182;55.648;13.208;2023-05-29T07:12:43;15.13;;;3.40;;
16153;SDS011;8182;55.648;13.208;2023-05-29T07:15:11;31.97;;;5.40;;
16153;SDS011;8182;55.648;13.208;2023-05-29T07:17:38;13.57;;;3.13;;
16153;SDS011;8182;55.648;13.208;2023-05-29T07:20:06;14.97;;;3.57;;
16153;SDS011;8182;55.648;13.208;2023-05-29T07:22:33;13.20;;;3.17;;
16153;SDS011;8182;55.648;13.208;2023-05-29T07:25:00;10.13;;;3.27;;
16153;SDS011;8182;55.648;13.208;2023-05-29T07:27:29;12.27;;;3.43;;
16153;SDS011;8182;55.648;13.208;2023-05-29T07:29:56;14.77;;;3.33;;
16153;SDS011;8182;55.648;13.208;2023-05-29T07:32:25;13.60;;;3.67;;
16153;SDS011;8182;55.648;13.208;2023-05-29T07:34:52;13.17;;;3.50;;
16153;SDS011;8182;55.648;13.208;2023-05-29T07:37:20;12.90;;;3.77;;
16153;SDS011;8182;55.648;13.208;2023-05-29T07:39:47;11.77;;;2.93;;
16153;SDS011;8182;55.648;13.208;2023-05-29T07:42:14;13.23;;;3.20;;
16153;SDS011;8182;55.648;13.208;2023-05-29T07:44:46;11.33;;;3.00;;
16153;SDS011;8182;55.648;13.208;2023-05-29T07:47:13;12.00;;;2.70;;
16153;SDS011;8182;55.648;13.208;2023-05-29T07:49:40;11.10;;;2.90;;
16153;SDS011;8182;55.648;13.208;2023-05-29T07:52:10;9.63;;;2.90;;
16153;SDS011;8182;55.648;13.208;2023-05-29T07:54:43;11.17;;;2.63;;
16153;SDS011;8182;55.648;13.208;2023-05-29T07:57:10;7.60;;;2.50;;
16153;SDS011;8182;55.648;13.208;2023-05-29T07:59:37;13.87;;;2.93;;
16153;SDS011;8182;55.648;13.208;2023-05-29T08:02:13;9.07;;;2.40;;
16153;SDS011;8182;55.648;13.208;2023-05-29T08:04:41;8.93;;;2.47;;
16153;SDS011;8182;55.648;13.208;2023-05-29T08:07:08;11.43;;;3.43;;
16153;SDS011;8182;55.648;13.208;2023-05-29T08:09:35;9.40;;;3.10;;
16153;SDS011;8182;55.648;13.208;2023-05-29T08:12:02;12.60;;;2.87;;
16153;SDS011;8182;55.648;13.208;2023-05-29T08:14:30;7.90;;;2.30;;
16153;SDS011;8182;55.648;13.208;2023-05-29T08:16:58;9.17;;;2.80;;
16153;SDS011;8182;55.648;13.208;2023-05-29T08:19:26;10.53;;;2.70;;
16153;SDS011;8182;55.648;13.208;2023-05-29T08:21:53;14.13;;;2.93;;
16153;SDS011;8182;55.648;13.208;2023-05-29T08:24:20;12.40;;;3.10;;
16153;SDS011;8182;55.648;13.208;2023-05-29T08:26:48;10.67;;;2.70;;
16153;SDS011;8182;55.648;13.208;2023-05-29T08:29:16;11.63;;;2.43;;
16153;SDS011;8182;55.648;13.208;2023-05-29T08:31:43;8.40;;;2.60;;
16153;SDS011;8182;55.648;13.208;2023-05-29T08:34:11;9.50;;;2.73;;
16153;SDS011;8182;55.648;13.208;2023-05-29T08:36:42;10.87;;;2.90;;
16153;SDS011;8182;55.648;13.208;2023-05-29T08:39:10;13.73;;;2.93;;
16153;SDS011;8182;55.648;13.208;2023-05-29T08:41:43;12.27;;;3.20;;
16153;SDS011;8182;55.648;13.208;2023-05-29T08:44:14;13.23;;;3.10;;
16153;SDS011;8182;55.648;13.208;2023-05-29T08:46:44;9.80;;;2.70;;
16153;SDS011;8182;55.648;13.208;2023-05-29T08:49:12;9.93;;;2.53;;
16153;SDS011;8182;55.648;13.208;2023-05-29T08:51:49;8.67;;;2.57;;
16153;SDS011;8182;55.648;13.208;2023-05-29T08:54:22;10.10;;;2.60;;
16153;SDS011;8182;55.648;13.208;2023-05-29T08:56:49;15.37;;;2.90;;
16153;SDS011;8182;55.648;13.208;2023-05-29T08:59:16;9.93;;;2.37;;
16153;SDS011;8182;55.648;13.208;2023-05-29T09:01:44;11.63;;;2.90;;
16153;SDS011;8182;55.648;13.208;2023-05-29T09:04:12;11.47;;;3.07;;
16153;SDS011;8182;55.648;13.208;2023-05-29T09:06:39;8.13;;;2.40;;
16153;SDS011;8182;55.648;13.208;2023-05-29T09:09:09;9.70;;;2.37;;
16153;SDS011;8182;55.648;13.208;2023-05-29T09:11:36;9.20;;;2.57;;
16153;SDS011;8182;55.648;13.208;2023-05-29T09:14:03;9.63;;;2.60;;
16153;SDS011;8182;55.648;13.208;2023-05-29T09:16:30;8.33;;;2.20;;
16153;SDS011;8182;55.648;13.208;2023-05-29T09:19:04;7.13;;;2.20;;
16153;SDS011;8182;55.648;13.208;2023-05-29T09:21:32;7.73;;;2.40;;
16153;SDS011;8182;55.648;13.208;2023-05-29T09:24:02;7.80;;;2.40;;
16153;SDS011;8182;55.648;13.208;2023-05-29T09:26:31;9.43;;;2.37;;
16153;SDS011;8182;55.648;13.208;2023-05-29T09:28:59;12.40;;;2.10;;
16153;SDS011;8182;55.648;13.208;2023-05-29T09:31:27;6.07;;;2.00;;
16153;SDS011;8182;55.648;13.208;2023-05-29T09:33:55;6.03;;;1.77;;
16153;SDS011;8182;55.648;13.208;2023-05-29T09:36:29;7.40;;;2.20;;
16153;SDS011;8182;55.648;13.208;2023-05-29T09:38:56;8.03;;;2.00;;
16153;SDS011;8182;55.648;13.208;2023-05-29T09:41:25;5.80;;;1.90;;
16153;SDS011;8182;55.648;13.208;2023-05-29T09:43:55;8.77;;;1.90;;
16153;SDS011;8182;55.648;13.208;2023-05-29T09:46:22;5.60;;;1.43;;
16153;SDS011;8182;55.648;13.208;2023-05-29T09:48:49;3.67;;;1.43;;
16153;SDS011;8182;55.648;13.208;2023-05-29T09:51:19;4.90;;;1.70;;
16153;SDS011;8182;55.648;13.208;2023-05-29T09:53:48;3.17;;;1.20;;
16153;SDS011;8182;55.648;13.208;2023-05-29T09:56:16;5.03;;;1.97;;
16153;SDS011;8182;55.648;13.208;2023-05-29T09:58:44;4.47;;;1.30;;
16153;SDS011;8182;55.648;13.208;2023-05-29T10:01:14;4.60;;;1.30;;
16153;SDS011;8182;55.648;13.208;2023-05-29T10:03:43;3.27;;;1.07;;
16153;SDS011;8182;55.648;13.208;2023-05-29T10:06:11;2.43;;;1.00;;
16153;SDS011;8182;55.648;13.208;2023-05-29T10:08:50;2.13;;;1.10;;
16153;SDS011;8182;55.648;13.208;2023-05-29T10:11:21;3.27;;;1.00;;
16153;SDS011;8182;55.648;13.208;2023-05-29T10:13:51;2.93;;;0.87;;
16153;SDS011;8182;55.648;13.208;2023-05-29T10:16:21;3.10;;;1.00;;
16153;SDS011;8182;55.648;13.208;2023-05-29T10:18:50;2.47;;;1.00;;
16153;SDS011;8182;55.648;13.208;2023-05-29T10:21:21;2.53;;;0.83;;
16153;SDS011;8182;55.648;13.208;2023-05-29T10:23:50;3.03;;;1.00;;
16153;SDS011;8182;55.648;13.208;2023-05-29T10:26:18;2.33;;;1.00;;
16153;SDS011;8182;55.648;13.208;2023-05-29T10:28:49;4.30;;;1.10;;
16153;SDS011;8182;55.648;13.208;2023-05-29T10:31:26;3.20;;;1.00;;
16153;SDS011;8182;55.648;13.208;2023-05-29T10:34:01;2.97;;;0.87;;
16153;SDS011;8182;55.648;13.208;2023-05-29T10:36:37;2.63;;;1.20;;
16153;SDS011;8182;55.648;13.208;2023-05-29T10:39:10;3.40;;;1.00;;
16153;SDS011;8182;55.648;13.208;2023-05-29T10:41:38;2.87;;;0.90;;
16153;SDS011;8182;55.648;13.208;2023-05-29T10:47:10;1.47;;;0.90;;
16153;SDS011;8182;55.648;13.208;2023-05-29T10:49:49;1.63;;;1.00;;
16153;SDS011;8182;55.648;13.208;2023-05-29T10:52:18;3.83;;;0.90;;
16153;SDS011;8182;55.648;13.208;2023-05-29T10:54:53;2.57;;;1.03;;
16153;SDS011;8182;55.648;13.208;2023-05-29T10:57:22;1.47;;;0.90;;
16153;SDS011;8182;55.648;13.208;2023-05-29T11:02:40;1.70;;;1.07;;
16153;SDS011;8182;55.648;13.208;2023-05-29T11:05:21;1.30;;;0.70;;
16153;SDS011;8182;55.648;13.208;2023-05-29T11:07:55;0.90;;;0.70;;
16153;SDS011;8182;55.648;13.208;2023-05-29T11:13:10;2.83;;;0.70;;
16153;SDS011;8182;55.648;13.208;2023-05-29T11:15:37;1.87;;;0.80;;
16153;SDS011;8182;55.648;13.208;2023-05-29T11:18:09;1.17;;;0.70;;
16153;SDS011;8182;55.648;13.208;2023-05-29T11:20:45;2.20;;;0.80;;
16153;SDS011;8182;55.648;13.208;2023-05-29T11:23:19;0.90;;;0.70;;
16153;SDS011;8182;55.648;13.208;2023-05-29T11:25:51;2.03;;;0.60;;
16153;SDS011;8182;55.648;13.208;2023-05-29T11:28:19;2.90;;;0.90;;
16153;SDS011;8182;55.648;13.208;2023-05-29T11:30:46;1.13;;;0.87;;
16153;SDS011;8182;55.648;13.208;2023-05-29T11:33:24;1.90;;;0.93;;
16153;SDS011;8182;55.648;13.208;2023-05-29T11:35:59;1.10;;;0.60;;
16153;SDS011;8182;55.648;13.208;2023-05-29T11:38:27;2.90;;;0.80;;
16153;SDS011;8182;55.648;13.208;2023-05-29T11:40:54;1.17;;;0.80;;
16153;SDS011;8182;55.648;13.208;2023-05-29T11:43:23;1.50;;;0.70;;
16153;SDS011;8182;55.648;13.208;2023-05-29T11:45:51;2.07;;;0.70;;
16153;SDS011;8182;55.648;13.208;2023-05-29T11:48:18;1.20;;;0.70;;
16153;SDS011;8182;55.648;13.208;2023-05-29T11:50:46;0.87;;;0.70;;
16153;SDS011;8182;55.648;13.208;2023-05-29T11:53:14;1.67;;;0.90;;
16153;SDS011;8182;55.648;13.208;2023-05-29T11:55:41;1.57;;;0.80;;
16153;SDS011;8182;55.648;13.208;2023-05-29T11:58:08;1.07;;;0.97;;
16153;SDS011;8182;55.648;13.208;2023-05-29T12:00:35;3.50;;;1.00;;
16153;SDS011;8182;55.648;13.208;2023-05-29T12:03:04;3.57;;;1.00;;
16153;SDS011;8182;55.648;13.208;2023-05-29T12:05:32;1.60;;;0.93;;
16153;SDS011;8182;55.648;13.208;2023-05-29T12:08:11;2.70;;;0.70;;
16153;SDS011;8182;55.648;13.208;2023-05-29T12:10:40;0.97;;;0.70;;
16153;SDS011;8182;55.648;13.208;2023-05-29T12:13:13;3.13;;;0.87;;
16153;SDS011;8182;55.648;13.208;2023-05-29T12:15:42;3.00;;;0.90;;
16153;SDS011;8182;55.648;13.208;2023-05-29T12:18:17;2.53;;;0.93;;
16153;SDS011;8182;55.648;13.208;2023-05-29T12:20:44;3.23;;;1.00;;
16153;SDS011;8182;55.648;13.208;2023-05-29T12:23:15;1.87;;;0.80;;
16153;SDS011;8182;55.648;13.208;2023-05-29T12:25:46;3.53;;;0.90;;
16153;SDS011;8182;55.648;13.208;2023-05-29T12:28:15;1.47;;;0.90;;
16153;SDS011;8182;55.648;13.208;2023-05-29T12:30:44;1.67;;;1.00;;
16153;SDS011;8182;55.648;13.208;2023-05-29T12:33:24;2.73;;;1.20;;
16153;SDS011;8182;55.648;13.208;2023-05-29T12:36:00;1.83;;;0.90;;
16153;SDS011;8182;55.648;13.208;2023-05-29T12:38:30;1.33;;;1.00;;
16153;SDS011;8182;55.648;13.208;2023-05-29T12:40:58;2.17;;;0.80;;
16153;SDS011;8182;55.648;13.208;2023-05-29T12:43:29;1.50;;;0.97;;
16153;SDS011;8182;55.648;13.208;2023-05-29T12:45:56;1.63;;;0.90;;
16153;SDS011;8182;55.648;13.208;2023-05-29T12:48:26;2.37;;;1.00;;
16153;SDS011;8182;55.648;13.208;2023-05-29T12:50:53;1.53;;;0.93;;
16153;SDS011;8182;55.648;13.208;2023-05-29T12:53:20;2.57;;;0.97;;
16153;SDS011;8182;55.648;13.208;2023-05-29T12:55:49;2.63;;;1.03;;
16153;SDS011;8182;55.648;13.208;2023-05-29T12:58:16;2.97;;;0.90;;
16153;SDS011;8182;55.648;13.208;2023-05-29T13:00:46;1.47;;;1.03;;
16153;SDS011;8182;55.648;13.208;2023-05-29T13:03:13;1.50;;;0.90;;
16153;SDS011;8182;55.648;13.208;2023-05-29T13:05:40;3.43;;;1.40;;
16153;SDS011;8182;55.648;13.208;2023-05-29T13:08:07;3.43;;;1.10;;
16153;SDS011;8182;55.648;13.208;2023-05-29T13:10:35;4.63;;;1.10;;
16153;SDS011;8182;55.648;13.208;2023-05-29T13:13:03;2.37;;;0.90;;
16153;SDS011;8182;55.648;13.208;2023-05-29T13:15:31;2.33;;;0.93;;
16153;SDS011;8182;55.648;13.208;2023-05-29T13:17:59;2.40;;;1.07;;
16153;SDS011;8182;55.648;13.208;2023-05-29T13:20:26;2.03;;;1.03;;
16153;SDS011;8182;55.648;13.208;2023-05-29T13:22:53;2.33;;;0.90;;
16153;SDS011;8182;55.648;13.208;2023-05-29T13:25:21;1.63;;;1.17;;
16153;SDS011;8182;55.648;13.208;2023-05-29T13:27:49;2.60;;;0.93;;
16153;SDS011;8182;55.648;13.208;2023-05-29T13:30:17;2.73;;;1.20;;
16153;SDS011;8182;55.648;13.208;2023-05-29T13:32:45;1.27;;;0.90;;
16153;SDS011;8182;55.648;13.208;2023-05-29T13:35:16;1.77;;;0.90;;
16153;SDS011;8182;55.648;13.208;2023-05-29T13:37:43;3.03;;;1.07;;
16153;SDS011;8182;55.648;13.208;2023-05-29T13:40:10;2.60;;;0.90;;
16153;SDS011;8182;55.648;13.208;2023-05-29T13:42:39;2.43;;;1.10;;
16153;SDS011;8182;55.648;13.208;2023-05-29T13:45:06;2.87;;;1.03;;
16153;SDS011;8182;55.648;13.208;2023-05-29T13:47:35;1.97;;;0.80;;
16153;SDS011;8182;55.648;13.208;2023-05-29T13:50:02;2.17;;;1.00;;
16153;SDS011;8182;55.648;13.208;2023-05-29T13:52:30;4.23;;;0.97;;
16153;SDS011;8182;55.648;13.208;2023-05-29T13:54:57;1.37;;;0.80;;
16153;SDS011;8182;55.648;13.208;2023-05-29T13:57:29;1.97;;;0.90;;
16153;SDS011;8182;55.648;13.208;2023-05-29T13:59:57;2.07;;;1.17;;
16153;SDS011;8182;55.648;13.208;2023-05-29T14:02:24;1.30;;;1.00;;
16153;SDS011;8182;55.648;13.208;2023-05-29T14:04:52;2.77;;;0.90;;
16153;SDS011;8182;55.648;13.208;2023-05-29T14:07:19;2.03;;;1.20;;
16153;SDS011;8182;55.648;13.208;2023-05-29T14:09:46;1.90;;;1.03;;
16153;SDS011;8182;55.648;13.208;2023-05-29T14:12:13;3.30;;;1.20;;
16153;SDS011;8182;55.648;13.208;2023-05-29T14:14:40;1.83;;;1.00;;
16153;SDS011;8182;55.648;13.208;2023-05-29T14:17:07;1.97;;;1.07;;
16153;SDS011;8182;55.648;13.208;2023-05-29T14:19:34;2.47;;;0.97;;
16153;SDS011;8182;55.648;13.208;2023-05-29T14:22:03;3.37;;;0.97;;
16153;SDS011;8182;55.648;13.208;2023-05-29T14:24:30;3.97;;;1.07;;
16153;SDS011;8182;55.648;13.208;2023-05-29T14:26:57;3.30;;;1.10;;
16153;SDS011;8182;55.648;13.208;2023-05-29T14:29:24;2.97;;;1.07;;
16153;SDS011;8182;55.648;13.208;2023-05-29T14:31:51;1.67;;;1.10;;
16153;SDS011;8182;55.648;13.208;2023-05-29T14:34:19;3.27;;;1.13;;
16153;SDS011;8182;55.648;13.208;2023-05-29T14:36:46;2.73;;;1.20;;
16153;SDS011;8182;55.648;13.208;2023-05-29T14:39:15;2.53;;;1.00;;
16153;SDS011;8182;55.648;13.208;2023-05-29T14:41:42;3.47;;;1.10;;
16153;SDS011;8182;55.648;13.208;2023-05-29T14:44:09;2.63;;;1.07;;
16153;SDS011;8182;55.648;13.208;2023-05-29T14:46:37;2.20;;;1.10;;
16153;SDS011;8182;55.648;13.208;2023-05-29T14:49:04;2.40;;;1.20;;
16153;SDS011;8182;55.648;13.208;2023-05-29T14:51:32;1.77;;;1.07;;
16153;SDS011;8182;55.648;13.208;2023-05-29T14:53:59;2.60;;;1.10;;
16153;SDS011;8182;55.648;13.208;2023-05-29T14:56:27;3.53;;;1.20;;
16153;SDS011;8182;55.648;13.208;2023-05-29T14:58:54;2.37;;;1.00;;
16153;SDS011;8182;55.648;13.208;2023-05-29T15:01:21;2.30;;;1.20;;